Terminal Aerodrome Forecast
Issued by NWS

Home | Current Version | Previous Version | Text Only | Print | Product List | Glossary On
Versions: 1 2 3 4 5 6 7 8 9 10 11 12 13
000
FTUS45 KCYS 231700 RRA
TAFLAR
TAF
KLAR 231742Z 2318/2418 26022G31KT P6SM BKN100
     FM232000 28028G41KT P6SM BKN090
     FM240100 30018KT P6SM SCT090
     FM240400 29009KT P6SM SCT090
     FM241400 26019G29KT P6SM BKN200=

USA.gov is the U.S. government's official web portal to all federal, state and local government web resources and services.